createdAt,value
2023-03-21T00:00:41.734Z,18.38
2023-03-21T00:03:09.285Z,19.23
2023-03-21T00:05:42.196Z,19.67
2023-03-21T00:08:09.862Z,19.17
2023-03-21T00:10:41.101Z,19.60
2023-03-21T00:13:16.200Z,21.10
2023-03-21T00:16:17.446Z,19.52
2023-03-21T00:18:47.484Z,19.35
2023-03-21T00:21:43.930Z,20.55
2023-03-21T00:24:08.171Z,18.40
2023-03-21T00:26:35.895Z,19.65
2023-03-21T00:29:03.386Z,19.30
2023-03-21T00:31:30.698Z,20.55
2023-03-21T00:33:58.151Z,18.70
2023-03-21T00:36:26.243Z,18.42
2023-03-21T00:38:54.607Z,20.73
2023-03-21T00:41:39.281Z,18.98
2023-03-21T00:44:09.107Z,19.25
2023-03-21T00:46:47.035Z,20.13
2023-03-21T00:51:52.053Z,18.13
2023-03-21T00:54:19.846Z,19.52
2023-03-21T00:56:47.282Z,19.40
2023-03-21T00:59:14.656Z,19.77
2023-03-21T01:01:43.448Z,18.52
2023-03-21T01:04:14.708Z,18.83
2023-03-21T01:06:43.429Z,19.40
2023-03-21T01:09:22.718Z,20.17
2023-03-21T01:11:52.378Z,19.52
2023-03-21T01:14:23.379Z,19.48
2023-03-21T01:16:54.642Z,18.13
2023-03-21T01:19:40.983Z,19.30
2023-03-21T01:22:16.383Z,20.00
2023-03-21T01:24:53.931Z,21.42
2023-03-21T01:27:24.346Z,19.30
2023-03-21T01:29:51.968Z,20.10
2023-03-21T01:32:19.682Z,19.73
2023-03-21T01:34:47.116Z,19.17
2023-03-21T01:37:14.860Z,18.48
2023-03-21T01:39:47.234Z,20.27
2023-03-21T01:42:15.192Z,18.80
2023-03-21T01:44:59.861Z,18.95
2023-03-21T01:47:35.998Z,20.13
2023-03-21T01:50:22.399Z,18.20
2023-03-21T01:53:08.725Z,16.45
2023-03-21T01:55:38.601Z,18.92
2023-03-21T01:58:14.287Z,18.17
2023-03-21T02:01:01.026Z,17.88
2023-03-21T02:03:50.554Z,16.98
2023-03-21T02:06:52.622Z,18.90
2023-03-21T02:09:37.361Z,18.63
2023-03-21T02:12:11.268Z,19.98
2023-03-21T02:14:39.466Z,21.63
2023-03-21T02:17:29.869Z,21.52
2023-03-21T02:20:22.303Z,21.33
2023-03-21T02:23:10.574Z,20.80
2023-03-21T02:26:06.766Z,22.13
2023-03-21T02:29:00.352Z,21.73
2023-03-21T02:31:46.337Z,22.90
2023-03-21T02:34:32.667Z,22.90
2023-03-21T02:37:28.942Z,22.85
2023-03-21T02:40:27.971Z,23.48
2023-03-21T02:43:22.532Z,21.52
2023-03-21T02:45:58.583Z,24.88
2023-03-21T02:48:44.403Z,23.50
2023-03-21T02:51:21.384Z,22.73
2023-03-21T02:54:19.978Z,24.17
2023-03-21T02:56:44.623Z,23.80
2023-03-21T02:59:14.816Z,23.92
2023-03-21T03:01:42.472Z,24.88
2023-03-21T03:04:25.014Z,23.55
2023-03-21T03:06:58.662Z,24.92
2023-03-21T03:09:52.748Z,24.45
2023-03-21T03:12:58.278Z,24.13
2023-03-21T03:15:39.556Z,24.60
2023-03-21T03:18:07.003Z,24.08
2023-03-21T03:20:54.986Z,25.92
2023-03-21T03:23:55.892Z,25.13
2023-03-21T03:26:30.902Z,24.98
2023-03-21T03:29:05.313Z,24.08
2023-03-21T03:31:41.960Z,24.38
2023-03-21T03:34:22.405Z,24.63
2023-03-21T03:36:56.422Z,22.95
2023-03-21T03:39:46.360Z,26.10
2023-03-21T03:42:28.792Z,23.00
2023-03-21T03:45:10.009Z,22.50
2023-03-21T03:47:57.408Z,22.45
2023-03-21T03:50:43.165Z,23.15
2023-03-21T03:53:27.174Z,22.73
2023-03-21T03:55:57.456Z,22.75
2023-03-21T03:58:39.539Z,24.70
2023-03-21T04:01:12.913Z,25.05
2023-03-21T04:03:49.782Z,24.23
2023-03-21T04:06:22.340Z,23.27
2023-03-21T04:08:52.225Z,22.25
2023-03-21T04:11:20.569Z,21.33
2023-03-21T04:13:52.281Z,21.73
2023-03-21T04:16:24.380Z,21.55
2023-03-21T04:18:52.689Z,22.00
2023-03-21T04:21:21.783Z,24.80
2023-03-21T04:23:49.280Z,24.88
2023-03-21T04:26:16.735Z,26.27
2023-03-21T04:28:54.507Z,24.30
2023-03-21T04:31:27.460Z,23.10
2023-03-21T04:34:15.056Z,23.98
2023-03-21T04:36:47.929Z,24.63
2023-03-21T04:39:16.920Z,24.70
2023-03-21T04:41:48.243Z,22.90
2023-03-21T04:44:17.377Z,22.65
2023-03-21T04:46:45.550Z,22.80
2023-03-21T04:49:13.706Z,21.95
2023-03-21T04:51:45.417Z,23.15
2023-03-21T04:54:17.925Z,24.10
2023-03-21T04:56:45.347Z,22.30
2023-03-21T04:59:15.781Z,23.33
2023-03-21T05:01:43.973Z,23.17
2023-03-21T05:04:13.586Z,22.92
2023-03-21T05:06:45.149Z,20.95
2023-03-21T05:09:13.142Z,21.58
2023-03-21T05:11:41.405Z,22.73
2023-03-21T05:14:14.341Z,21.13
2023-03-21T05:16:53.690Z,21.60
2023-03-21T05:19:35.717Z,21.13
2023-03-21T05:24:33.642Z,22.58
2023-03-21T05:27:02.637Z,22.50
2023-03-21T05:32:04.404Z,22.98
2023-03-21T05:34:32.316Z,23.20
2023-03-21T05:37:01.134Z,22.73
2023-03-21T05:39:42.578Z,23.75
2023-03-21T05:42:18.708Z,24.35
2023-03-21T05:44:47.501Z,24.02
2023-03-21T05:47:17.178Z,24.90
2023-03-21T05:49:47.446Z,23.45
2023-03-21T05:52:16.077Z,22.98
2023-03-21T05:54:45.506Z,24.73
2023-03-21T05:57:13.370Z,24.58
2023-03-21T05:59:58.978Z,23.95
2023-03-21T06:02:28.156Z,24.58
2023-03-21T06:05:01.390Z,23.00
2023-03-21T06:07:28.797Z,22.92
2023-03-21T06:09:56.416Z,23.88
2023-03-21T06:12:23.798Z,22.92
2023-03-21T06:15:25.431Z,21.35
2023-03-21T06:18:15.496Z,19.90
2023-03-21T06:20:54.848Z,19.45
2023-03-21T06:23:22.283Z,17.98
2023-03-21T06:25:50.310Z,18.67
2023-03-21T06:28:17.834Z,18.80
2023-03-21T06:30:45.455Z,18.90
2023-03-21T06:33:25.681Z,16.77
2023-03-21T06:35:58.374Z,16.67
2023-03-21T06:38:26.900Z,17.20
2023-03-21T06:40:54.860Z,19.63
2023-03-21T06:43:24.325Z,17.48
2023-03-21T06:45:51.658Z,18.23
2023-03-21T06:48:19.101Z,17.27
2023-03-21T06:50:52.183Z,15.80
2023-03-21T06:53:25.243Z,16.45
2023-03-21T06:56:28.034Z,15.88
2023-03-21T06:58:56.929Z,15.85
2023-03-21T07:01:46.546Z,15.93
2023-03-21T07:04:14.228Z,15.55
2023-03-21T07:06:42.639Z,15.40
2023-03-21T07:09:10.270Z,16.02
2023-03-21T07:11:38.676Z,15.50
2023-03-21T07:14:07.009Z,14.55
2023-03-21T07:16:34.485Z,14.95
2023-03-21T07:19:01.846Z,14.77
2023-03-21T07:21:29.229Z,14.77
2023-03-21T07:23:56.683Z,13.55
2023-03-21T07:26:23.926Z,13.30
2023-03-21T07:28:51.255Z,12.60
2023-03-21T07:31:19.701Z,13.20
2023-03-21T07:33:48.845Z,11.65
2023-03-21T07:36:16.819Z,12.30
2023-03-21T07:38:47.214Z,10.43
2023-03-21T07:43:43.518Z,10.75
2023-03-21T07:46:10.977Z,10.32
2023-03-21T07:48:38.301Z,9.80
2023-03-21T07:51:07.214Z,9.50
2023-03-21T07:53:36.354Z,9.40
2023-03-21T07:56:04.266Z,9.15
2023-03-21T07:58:34.327Z,9.73
2023-03-21T08:01:02.473Z,9.10
2023-03-21T08:03:31.202Z,8.63
2023-03-21T08:06:01.390Z,8.05
2023-03-21T08:08:28.859Z,7.90
2023-03-21T08:10:56.805Z,7.57
2023-03-21T08:13:24.890Z,7.30
2023-03-21T08:15:52.222Z,9.73
2023-03-21T08:18:19.579Z,7.50
2023-03-21T08:20:46.975Z,7.13
2023-03-21T08:23:14.327Z,6.88
2023-03-21T08:25:41.618Z,7.28
2023-03-21T08:28:08.902Z,7.18
2023-03-21T08:30:37.864Z,7.97
2023-03-21T08:33:05.222Z,7.47
2023-03-21T08:35:32.488Z,7.30
2023-03-21T08:37:59.790Z,7.70
2023-03-21T08:40:27.386Z,6.97
2023-03-21T08:42:54.818Z,6.63
2023-03-21T08:45:23.057Z,6.53
2023-03-21T08:47:50.985Z,6.70
2023-03-21T08:50:23.503Z,6.28
2023-03-21T08:52:51.335Z,6.45
2023-03-21T08:55:19.956Z,8.90
2023-03-21T08:57:47.389Z,7.28
2023-03-21T09:00:18.531Z,6.60
2023-03-21T09:02:48.644Z,6.28
2023-03-21T09:05:17.112Z,6.82
2023-03-21T09:07:45.544Z,7.18
2023-03-21T09:10:21.052Z,7.93
2023-03-21T09:12:53.345Z,7.63
2023-03-21T09:15:22.278Z,6.10
2023-03-21T09:17:53.123Z,6.47
2023-03-21T09:20:26.415Z,6.78
2023-03-21T09:22:54.413Z,6.05
2023-03-21T09:25:21.776Z,5.75
2023-03-21T09:27:49.384Z,6.63
2023-03-21T09:30:20.858Z,7.18
2023-03-21T09:32:49.709Z,8.48
2023-03-21T09:35:19.044Z,15.38
2023-03-21T09:37:48.484Z,8.23
2023-03-21T09:40:19.844Z,6.95
2023-03-21T09:42:51.572Z,6.90
2023-03-21T09:45:37.279Z,7.20
2023-03-21T09:48:07.909Z,6.75
2023-03-21T09:50:38.917Z,7.65
2023-03-21T09:53:25.597Z,6.78
2023-03-21T09:55:54.710Z,6.88
2023-03-21T09:58:40.592Z,8.10
2023-03-21T10:01:33.214Z,8.27
2023-03-21T10:04:06.113Z,6.82
2023-03-21T10:06:40.732Z,7.15
2023-03-21T10:09:24.764Z,6.30
2023-03-21T10:12:08.538Z,7.93
2023-03-21T10:14:48.580Z,5.88
2023-03-21T10:17:41.355Z,5.72
2023-03-21T10:20:16.153Z,5.63
2023-03-21T10:22:46.198Z,5.35
2023-03-21T10:25:36.577Z,6.72
2023-03-21T10:28:07.410Z,5.18
2023-03-21T10:30:47.348Z,5.30
2023-03-21T10:33:22.254Z,6.03
2023-03-21T10:36:10.721Z,6.40
2023-03-21T10:38:46.062Z,6.18
2023-03-21T10:41:13.472Z,4.85
2023-03-21T10:43:42.172Z,5.53
2023-03-21T10:46:14.228Z,5.85
2023-03-21T10:48:47.234Z,6.47
2023-03-21T10:51:22.633Z,6.15
2023-03-21T10:53:59.238Z,9.80
2023-03-21T10:56:36.251Z,5.78
2023-03-21T10:59:07.213Z,5.53
2023-03-21T11:01:41.858Z,5.75
2023-03-21T11:04:21.254Z,7.07
2023-03-21T11:07:07.674Z,5.30
2023-03-21T11:09:53.505Z,6.45
2023-03-21T11:12:41.173Z,5.30
2023-03-21T11:15:37.930Z,5.38
2023-03-21T11:18:39.930Z,4.97
2023-03-21T11:21:11.350Z,5.07
2023-03-21T11:23:48.340Z,4.57
2023-03-21T11:26:24.441Z,5.38
2023-03-21T11:28:52.276Z,4.60
2023-03-21T11:31:21.077Z,5.22
2023-03-21T11:34:00.120Z,5.80
2023-03-21T11:36:33.962Z,4.43
2023-03-21T11:39:16.057Z,2.80
2023-03-21T11:44:27.394Z,4.53
2023-03-21T11:46:55.689Z,5.63
2023-03-21T11:49:24.367Z,5.97
2023-03-21T11:52:23.769Z,5.15
2023-03-21T11:55:23.766Z,4.47
2023-03-21T11:58:15.136Z,4.20
2023-03-21T12:01:02.126Z,4.40
2023-03-21T12:03:48.275Z,4.20
2023-03-21T12:06:19.398Z,5.00
2023-03-21T12:08:54.669Z,4.45
2023-03-21T12:12:14.184Z,4.78
2023-03-21T12:14:50.436Z,4.28
2023-03-21T12:17:51.454Z,5.47
2023-03-21T12:20:43.259Z,5.20
2023-03-21T12:23:35.211Z,5.18
2023-03-21T12:26:34.938Z,5.47
2023-03-21T12:29:21.086Z,5.57
2023-03-21T12:32:05.714Z,5.75
2023-03-21T12:34:36.046Z,6.28
2023-03-21T12:37:33.686Z,6.15
2023-03-21T12:40:35.716Z,5.70
2023-03-21T12:43:17.526Z,5.65
2023-03-21T12:45:49.241Z,5.97
2023-03-21T12:48:55.289Z,5.97
2023-03-21T12:51:32.674Z,6.65
2023-03-21T12:54:09.201Z,6.50
2023-03-21T12:56:51.294Z,7.28
2023-03-21T12:59:42.925Z,8.35
2023-03-21T13:02:32.375Z,8.73
2023-03-21T13:05:24.182Z,8.73
2023-03-21T13:07:58.596Z,8.25
2023-03-21T13:10:26.041Z,7.75
2023-03-21T13:13:14.702Z,8.05
2023-03-21T13:15:52.648Z,6.80
2023-03-21T13:18:33.327Z,7.20
2023-03-21T13:21:25.977Z,7.47
2023-03-21T13:24:05.429Z,6.90
2023-03-21T13:26:46.248Z,6.63
2023-03-21T13:29:45.484Z,7.40
2023-03-21T13:32:24.870Z,9.90
2023-03-21T13:35:00.517Z,6.18
2023-03-21T13:37:38.949Z,6.18
2023-03-21T13:40:20.540Z,5.93
2023-03-21T13:42:53.850Z,6.13
2023-03-21T13:45:29.782Z,6.32
2023-03-21T13:48:05.866Z,6.93
2023-03-21T13:51:04.514Z,7.15
2023-03-21T13:53:36.880Z,6.88
2023-03-21T13:56:16.379Z,8.23
2023-03-21T13:58:46.776Z,6.57
2023-03-21T14:01:32.423Z,5.25
2023-03-21T14:04:09.945Z,5.07
2023-03-21T14:06:54.343Z,5.15
2023-03-21T14:09:21.852Z,4.75
2023-03-21T14:11:54.654Z,3.83
2023-03-21T14:14:29.638Z,4.13
2023-03-21T14:16:57.084Z,5.18
2023-03-21T14:19:31.543Z,5.85
2023-03-21T14:21:59.422Z,6.40
2023-03-21T14:24:26.945Z,6.80
2023-03-21T14:26:55.174Z,7.72
2023-03-21T14:29:34.700Z,7.97
2023-03-21T14:32:03.522Z,8.43
2023-03-21T14:34:35.030Z,8.98
2023-03-21T14:37:02.607Z,8.70
2023-03-21T14:39:33.647Z,8.68
2023-03-21T14:42:07.333Z,8.47
2023-03-21T14:44:53.407Z,9.38
2023-03-21T14:47:26.430Z,9.80
2023-03-21T14:49:54.392Z,9.95
2023-03-21T14:52:33.087Z,9.73
2023-03-21T14:55:02.737Z,10.00
2023-03-21T14:57:33.367Z,10.63
2023-03-21T15:00:14.756Z,10.57
2023-03-21T15:02:46.156Z,9.85
2023-03-21T15:05:19.213Z,10.95
2023-03-21T15:07:54.941Z,10.48
2023-03-21T15:10:23.505Z,9.40
2023-03-21T15:12:56.418Z,10.15
2023-03-21T15:15:27.570Z,10.80
2023-03-21T15:17:58.748Z,10.02
2023-03-21T15:20:32.170Z,10.75
2023-03-21T15:23:18.315Z,9.23
2023-03-21T15:25:46.120Z,10.65
2023-03-21T15:28:14.938Z,12.05
2023-03-21T15:30:51.445Z,11.07
2023-03-21T15:33:19.897Z,10.10
2023-03-21T15:35:54.280Z,10.07
2023-03-21T15:38:33.312Z,9.30
2023-03-21T15:41:21.789Z,10.20
2023-03-21T15:44:00.870Z,8.75
2023-03-21T15:46:43.461Z,8.00
2023-03-21T15:49:25.561Z,8.80
2023-03-21T15:52:03.265Z,12.02
2023-03-21T15:54:41.591Z,9.10
2023-03-21T15:57:30.255Z,8.05
2023-03-21T16:00:12.138Z,8.98
2023-03-21T16:02:42.155Z,8.20
2023-03-21T16:05:28.669Z,7.70
2023-03-21T16:08:05.371Z,7.82
2023-03-21T16:10:37.304Z,7.63
2023-03-21T16:15:33.444Z,8.23
2023-03-21T16:18:03.781Z,7.03
2023-03-21T16:20:42.819Z,6.53
2023-03-21T16:23:12.413Z,6.93
2023-03-21T16:25:40.775Z,6.70
2023-03-21T16:28:14.654Z,7.15
2023-03-21T16:30:42.013Z,6.13
2023-03-21T16:33:13.422Z,7.30
2023-03-21T16:35:41.484Z,7.00
2023-03-21T16:38:12.579Z,7.68
2023-03-21T16:40:42.635Z,6.93
2023-03-21T16:43:11.297Z,7.40
2023-03-21T16:45:38.726Z,6.55
2023-03-21T16:48:09.094Z,6.95
2023-03-21T16:50:46.957Z,6.10
2023-03-21T16:53:14.246Z,6.38
2023-03-21T16:55:42.204Z,6.88
2023-03-21T16:58:12.084Z,6.55
2023-03-21T17:00:40.511Z,6.60
2023-03-21T17:03:19.495Z,7.35
2023-03-21T17:05:47.317Z,6.90
2023-03-21T17:08:20.149Z,6.53
2023-03-21T17:10:47.531Z,6.43
2023-03-21T17:13:14.869Z,6.20
2023-03-21T17:15:42.356Z,7.15
2023-03-21T17:18:11.447Z,7.32
2023-03-21T17:20:41.721Z,8.50
2023-03-21T17:23:10.474Z,6.13
2023-03-21T17:25:37.862Z,6.68
2023-03-21T17:28:05.341Z,5.70
2023-03-21T17:30:35.691Z,5.60
2023-03-21T17:33:03.154Z,7.10
2023-03-21T17:35:30.574Z,6.22
2023-03-21T17:37:58.696Z,7.30
2023-03-21T17:40:31.460Z,7.30
2023-03-21T17:43:01.169Z,5.85
2023-03-21T17:45:28.623Z,4.18
2023-03-21T17:47:56.063Z,5.55
2023-03-21T17:50:26.088Z,4.53
2023-03-21T17:52:56.668Z,3.83
2023-03-21T17:55:24.613Z,3.53
2023-03-21T17:57:52.892Z,3.67
2023-03-21T18:00:29.773Z,6.63
2023-03-21T18:02:57.621Z,7.40
2023-03-21T18:05:25.656Z,3.97
2023-03-21T18:08:09.644Z,4.20
2023-03-21T18:10:38.710Z,5.00
2023-03-21T18:13:06.337Z,4.78
2023-03-21T18:15:34.819Z,6.22
2023-03-21T18:18:05.235Z,8.30
2023-03-21T18:23:21.781Z,15.68
2023-03-21T18:25:50.059Z,12.32
2023-03-21T18:28:21.318Z,13.30
2023-03-21T18:33:41.050Z,7.68
2023-03-21T18:36:14.083Z,5.72
2023-03-21T18:38:42.504Z,4.35
2023-03-21T18:41:10.468Z,4.72
2023-03-21T18:44:02.952Z,4.65
2023-03-21T18:46:26.692Z,5.72
2023-03-21T18:48:55.283Z,5.80
2023-03-21T18:51:23.311Z,6.03
2023-03-21T18:53:50.731Z,6.10
2023-03-21T18:57:13.146Z,6.70
2023-03-21T18:59:07.722Z,7.47
2023-03-21T19:01:45.478Z,8.50
2023-03-21T19:04:29.374Z,13.75
2023-03-21T19:07:06.302Z,16.85
2023-03-21T19:09:54.752Z,18.25
2023-03-21T19:12:21.393Z,35.47
2023-03-21T19:14:49.139Z,28.50
2023-03-21T19:18:15.369Z,10.80
2023-03-21T19:20:05.924Z,33.78
2023-03-21T19:22:33.529Z,32.67
2023-03-21T19:25:01.157Z,20.10
2023-03-21T19:27:28.608Z,16.35
2023-03-21T19:30:12.748Z,16.20
2023-03-21T19:32:41.463Z,20.17
2023-03-21T19:35:09.858Z,28.95
2023-03-21T19:37:37.916Z,25.58
2023-03-21T19:40:07.246Z,28.25
2023-03-21T19:42:36.473Z,26.25
2023-03-21T19:45:05.745Z,62.92
2023-03-21T19:47:35.736Z,86.55
2023-03-21T19:52:51.577Z,27.95
2023-03-21T19:55:18.922Z,32.88
2023-03-21T19:57:49.353Z,21.23
2023-03-21T20:00:18.609Z,18.85
2023-03-21T20:02:47.328Z,25.00
2023-03-21T20:05:18.040Z,38.53
2023-03-21T20:07:45.689Z,32.70
2023-03-21T20:10:13.154Z,22.52
2023-03-21T20:12:40.706Z,23.83
2023-03-21T20:15:16.972Z,24.27
2023-03-21T20:17:45.269Z,63.97
2023-03-21T20:20:17.677Z,52.88
2023-03-21T20:23:07.948Z,52.13
2023-03-21T20:25:39.278Z,49.30
2023-03-21T20:28:20.121Z,33.83
2023-03-21T20:30:54.771Z,125.68
2023-03-21T20:33:22.498Z,64.82
2023-03-21T20:38:39.608Z,53.80
2023-03-21T20:41:07.606Z,18.83
2023-03-21T20:46:23.486Z,27.73
2023-03-21T20:48:52.741Z,40.35
2023-03-21T20:54:09.165Z,53.88
2023-03-21T20:56:37.158Z,26.45
2023-03-21T20:59:16.738Z,31.80
2023-03-21T21:01:48.474Z,21.85
2023-03-21T21:04:20.169Z,18.27
2023-03-21T21:06:48.603Z,14.57
2023-03-21T21:09:17.074Z,22.45
2023-03-21T21:14:31.807Z,33.63
2023-03-21T21:17:02.588Z,32.88
2023-03-21T21:19:38.405Z,26.30
2023-03-21T21:22:06.006Z,29.98
2023-03-21T21:24:33.311Z,30.15
2023-03-21T21:27:01.446Z,30.67
2023-03-21T21:29:28.878Z,32.60
2023-03-21T21:31:56.461Z,19.27
2023-03-21T21:34:23.893Z,14.80
2023-03-21T21:36:51.385Z,13.80
2023-03-21T21:39:18.762Z,32.03
2023-03-21T21:41:46.453Z,84.53
2023-03-21T21:44:14.097Z,20.02
2023-03-21T21:46:42.567Z,24.67
2023-03-21T21:49:09.917Z,36.15
2023-03-21T21:51:37.377Z,38.03
2023-03-21T21:54:04.949Z,21.75
2023-03-21T21:56:32.315Z,21.25
2023-03-21T21:59:03.283Z,20.10
2023-03-21T22:01:34.927Z,16.38
2023-03-21T22:04:10.959Z,15.07
2023-03-21T22:06:38.551Z,13.40
2023-03-21T22:09:07.151Z,12.82
2023-03-21T22:11:34.722Z,11.95
2023-03-21T22:14:05.256Z,12.45
2023-03-21T22:16:32.745Z,12.43
2023-03-21T22:19:00.244Z,13.75
2023-03-21T22:21:29.126Z,13.52
2023-03-21T22:23:56.474Z,13.10
2023-03-21T22:26:24.231Z,11.80
2023-03-21T22:28:51.751Z,14.05
2023-03-21T22:31:19.296Z,13.23
2023-03-21T22:33:48.812Z,12.10
2023-03-21T22:36:16.163Z,12.30
2023-03-21T22:38:44.087Z,13.27
2023-03-21T22:41:11.669Z,10.90
2023-03-21T22:43:45.570Z,13.10
2023-03-21T22:46:13.103Z,14.43
2023-03-21T22:48:40.500Z,11.75
2023-03-21T22:51:08.288Z,11.85
2023-03-21T22:53:35.690Z,10.77
2023-03-21T22:56:03.020Z,10.75
2023-03-21T22:58:30.702Z,13.00
2023-03-21T23:01:02.264Z,10.70
2023-03-21T23:03:29.627Z,10.48
2023-03-21T23:06:00.673Z,10.55
2023-03-21T23:08:28.239Z,10.82
2023-03-21T23:10:55.576Z,14.82
2023-03-21T23:13:27.078Z,17.27
2023-03-21T23:15:54.620Z,17.70
2023-03-21T23:18:21.898Z,11.00
2023-03-21T23:20:50.085Z,11.93
2023-03-21T23:23:17.582Z,12.57
2023-03-21T23:25:45.389Z,28.35
2023-03-21T23:28:12.760Z,22.35
2023-03-21T23:30:40.539Z,15.15
2023-03-21T23:33:08.038Z,11.85
2023-03-21T23:35:36.527Z,11.80
2023-03-21T23:38:04.720Z,11.55
2023-03-21T23:40:32.234Z,29.92
2023-03-21T23:42:59.888Z,24.50
2023-03-21T23:45:27.271Z,20.67
2023-03-21T23:47:54.726Z,11.98
2023-03-21T23:50:22.287Z,11.40
2023-03-21T23:52:49.745Z,10.10
2023-03-21T23:55:17.172Z,11.20
2023-03-21T23:57:44.533Z,12.20
